EYPA/PLQ METAR and TAF weather

Enter ICAO airport designator
Station Type Date Time Source
EYPA METAR 2018/04/27 00:50 UTC NOAA

EYPA 270050Z AUTO 25006KT 210V320 9999 SCT034/// BKN079/// 06/04 Q1010


Station Type Date Time Source
EYPA Decoded METAR 2018/04/27 00:50 UTC NOAA

Palanga Intl., Lithuania (EYPA) 55-55-12N 021-03E
Apr 26, 2018 - 08:50 PM EDT / 2018.04.27 0050 UTC
Wind: from the WSW (250 degrees) at 7 MPH (6 KT) (direction variable):0
Visibility: greater than 7 mile(s):0
Sky conditions: mostly cloudy
Temperature: 42 F (6 C)
Dew Point: 39 F (4 C)
Relative Humidity: 86%
Pressure (altimeter): 29.83 in. Hg (1010 hPa)
ob: EYPA 270050Z AUTO 25006KT 210V320 9999 SCT034/// BKN079/// 06/04 Q1010
cycle: 1

Station Type Date Time Source
EYPA TAF 2018/04/26 18:09 UTC NOAA

TAF TAF EYPA 261707Z 2618/2718 24010KT 7000 BKN006
TEMPO 2618/2703 3000 BR BKN002
TEMPO 2703/2712 SHRA BKN015CB


Example: see airport list